Time;durP1;ratioP1;P1;durP2;ratioP2;P2;SDS_P1;SDS_P2;PMS_P1;PMS_P2;Temp;Humidity;BMP_temperature;BMP_pressure;BME280_temperature;BME280_humidity;BME280_pressure;Samples;Min_cycle;Max_cycle;Signal;HPM_P1;HPM_P2
2023/10/07 00:02:19;;;;;;;0.10;0.10;;;;;;;10.65;100.00;97255.66;5023626;28;20791;-86
2023/10/07 00:05:06;;;;;;;0.13;0.13;;;;;;;10.60;100.00;97256.34;5021204;28;20052;-88
2023/10/07 00:08:00;;;;;;;0.08;0.08;;;;;;;10.62;100.00;97256.13;5021270;28;20124;-86
2023/10/07 00:10:49;;;;;;;0.10;0.10;;;;;;;10.54;100.00;97259.13;5024007;28;20088;-86
2023/10/07 00:13:40;;;;;;;0.10;0.10;;;;;;;10.53;100.00;97258.31;5021715;28;20642;-84
2023/10/07 00:16:25;;;;;;;0.10;0.10;;;;;;;10.46;100.00;97256.78;5021723;28;20052;-83
2023/10/07 00:19:13;;;;;;;0.10;0.10;;;;;;;10.45;100.00;97263.97;5025718;28;20064;-85
2023/10/07 00:21:59;;;;;;;0.10;0.10;;;;;;;10.41;100.00;97264.66;5024004;28;20046;-85
2023/10/07 00:24:48;;;;;;;0.10;0.10;;;;;;;10.40;100.00;97260.34;5021470;28;20119;-84
2023/10/07 00:27:40;;;;;;;0.10;0.10;;;;;;;10.40;100.00;97255.00;5021015;28;20049;-82
2023/10/07 00:30:30;;;;;;;0.10;0.10;;;;;;;10.40;100.00;97252.31;5006426;28;20041;-87
2023/10/07 00:33:21;;;;;;;0.10;0.10;;;;;;;10.37;100.00;97253.59;5019784;28;20045;-82
2023/10/07 00:36:10;;;;;;;0.20;0.20;;;;;;;10.28;100.00;97239.75;5006109;28;20052;-83
2023/10/07 00:38:55;;;;;;;0.10;0.10;;;;;;;10.26;100.00;97225.75;5022117;28;20045;-88
2023/10/07 00:41:50;;;;;;;0.10;0.10;;;;;;;10.15;100.00;97229.19;5021392;28;20141;-87
2023/10/07 00:44:37;;;;;;;0.10;0.10;;;;;;;10.11;100.00;97241.34;5006724;28;20480;-86
2023/10/07 00:47:23;;;;;;;0.10;0.10;;;;;;;10.09;100.00;97242.63;5007113;28;20107;-86
2023/10/07 00:50:12;;;;;;;0.10;0.10;;;;;;;10.10;100.00;97245.09;5020793;28;20784;-87
2023/10/07 00:52:59;;;;;;;0.10;0.10;;;;;;;10.12;100.00;97250.22;5010354;28;20045;-88
2023/10/07 00:55:46;;;;;;;0.00;0.00;;;;;;;10.14;100.00;97248.13;5020723;28;20033;-87
2023/10/07 00:58:35;;;;;;;0.10;0.10;;;;;;;10.15;100.00;97255.94;5022875;28;20137;-89
2023/10/07 01:01:21;;;;;;;0.10;0.10;;;;;;;10.11;100.00;97257.41;5007251;28;20049;-86
2023/10/07 01:04:07;;;;;;;0.10;0.10;;;;;;;10.14;100.00;97259.66;5020475;28;20677;-87
2023/10/07 01:07:02;;;;;;;0.10;0.10;;;;;;;10.10;100.00;97258.44;5021942;28;20055;-88
2023/10/07 01:10:00;;;;;;;0.10;0.10;;;;;;;10.17;100.00;97242.31;5022841;28;20450;-88
2023/10/07 01:12:51;;;;;;;0.10;0.10;;;;;;;10.14;100.00;97243.59;5020378;28;20061;-87
2023/10/07 01:15:39;;;;;;;0.10;0.10;;;;;;;10.11;100.00;97243.22;5019542;28;20045;-83
2023/10/07 01:18:27;;;;;;;0.10;0.10;;;;;;;10.14;100.00;97238.25;5021947;28;20102;-85
2023/10/07 01:21:30;;;;;;;0.10;0.10;;;;;;;10.08;100.00;97241.81;5022287;28;20041;-84
2023/10/07 01:24:23;;;;;;;0.10;0.10;;;;;;;10.02;100.00;97242.72;5021661;28;20045;-86
2023/10/07 01:30:25;;;;;;;0.10;0.10;;;;;;;10.04;100.00;97238.81;5022125;28;20049;-85
2023/10/07 01:33:24;;;;;;;0.10;0.10;;;;;;;10.04;100.00;97249.50;5021993;28;20044;-85
2023/10/07 01:36:16;;;;;;;0.10;0.10;;;;;;;10.02;100.00;97245.41;5020604;28;20041;-85
2023/10/07 01:39:02;;;;;;;;;;;;;;;10.03;100.00;97242.50;5024115;28;20120;-84
2023/10/07 01:41:49;;;;;;;0.10;0.10;;;;;;;9.97;100.00;97237.25;5022854;28;20027;-87
2023/10/07 01:44:40;;;;;;;0.10;0.10;;;;;;;9.91;100.00;97233.63;5025103;28;20972;-88
2023/10/07 01:47:29;;;;;;;0.10;0.10;;;;;;;9.88;100.00;97227.88;5010350;28;20042;-89
2023/10/07 01:50:18;;;;;;;0.10;0.10;;;;;;;9.80;100.00;97234.34;5025753;28;20041;-86
2023/10/07 01:53:05;;;;;;;0.10;0.10;;;;;;;9.75;100.00;97236.91;5023596;28;20053;-86
2023/10/07 01:55:52;;;;;;;0.10;0.10;;;;;;;9.78;100.00;97244.47;5020312;28;20074;-86
2023/10/07 01:58:38;;;;;;;0.10;0.10;;;;;;;9.82;100.00;97245.66;5027318;28;20227;-84
2023/10/07 02:01:28;;;;;;;0.10;0.10;;;;;;;9.86;100.00;97251.38;5043087;28;20869;-84
2023/10/07 02:07:29;;;;;;;0.10;0.10;;;;;;;9.77;100.00;97249.00;5026347;28;20125;-88
2023/10/07 02:10:23;;;;;;;0.10;0.10;;;;;;;9.74;100.00;97246.78;5025752;28;20133;-86
2023/10/07 02:13:14;;;;;;;0.10;0.10;;;;;;;9.75;100.00;97232.38;5011024;28;20041;-86
2023/10/07 02:16:06;;;;;;;0.10;0.10;;;;;;;9.76;100.00;97231.31;5027117;28;20763;-87
2023/10/07 02:18:52;;;;;;;0.10;0.10;;;;;;;9.82;100.00;97223.47;5023394;28;20049;-86
2023/10/07 02:21:38;;;;;;;0.00;0.00;;;;;;;9.78;100.00;97228.44;5021497;28;20045;-84
2023/10/07 02:24:24;;;;;;;0.15;0.15;;;;;;;9.87;100.00;97226.25;5025689;28;20045;-89
2023/10/07 02:27:17;;;;;;;0.10;0.10;;;;;;;9.84;100.00;97221.38;5025689;28;20045;-86
2023/10/07 02:30:03;;;;;;;0.10;0.10;;;;;;;9.82;100.00;97218.94;5022852;28;20049;-86
2023/10/07 02:32:49;;;;;;;0.10;0.10;;;;;;;9.70;100.00;97226.88;5025106;28;20072;-87
2023/10/07 02:35:36;;;;;;;0.10;0.10;;;;;;;9.65;100.00;97217.88;5028246;28;20097;-85
2023/10/07 02:38:35;;;;;;;0.10;0.10;;;;;;;9.55;100.00;97210.41;5048793;28;20064;-84
2023/10/07 02:41:21;;;;;;;0.10;0.10;;;;;;;9.46;100.00;97215.22;5028291;28;20041;-86
2023/10/07 02:44:15;;;;;;;0.10;0.10;;;;;;;9.39;100.00;97213.66;5010403;28;20037;-86
2023/10/07 02:47:11;;;;;;;0.10;0.10;;;;;;;9.33;100.00;97207.34;5015623;28;20660;-85
2023/10/07 02:50:00;;;;;;;0.10;0.10;;;;;;;9.36;100.00;97208.78;5024428;28;20041;-86
2023/10/07 02:52:47;;;;;;;0.10;0.10;;;;;;;9.36;100.00;97214.94;5026721;28;20143;-84
2023/10/07 02:55:47;;;;;;;0.10;0.10;;;;;;;9.37;100.00;97221.09;5022531;28;20052;-86
2023/10/07 02:58:35;;;;;;;0.10;0.10;;;;;;;9.49;100.00;97235.34;5021717;28;20051;-85
2023/10/07 03:01:25;;;;;;;0.10;0.10;;;;;;;9.63;100.00;97228.81;5024988;28;20048;-86
2023/10/07 03:04:11;;;;;;;0.00;0.00;;;;;;;9.70;100.00;97240.22;5023321;28;20793;-85
2023/10/07 03:07:00;;;;;;;0.10;0.10;;;;;;;9.77;100.00;97232.97;5018424;28;20514;-87
2023/10/07 03:09:55;;;;;;;0.10;0.10;;;;;;;9.89;100.00;97222.34;5025213;28;20044;-86
2023/10/07 03:12:47;;;;;;;0.10;0.10;;;;;;;9.96;100.00;97206.19;5008487;28;20044;-84
2023/10/07 03:18:29;;;;;;;0.10;0.10;;;;;;;9.80;100.00;97188.09;5022410;28;20033;-87
2023/10/07 03:21:17;;;;;;;0.10;0.10;;;;;;;9.71;100.00;97198.28;5024866;28;20037;-87
2023/10/07 03:24:08;;;;;;;0.10;0.10;;;;;;;9.74;100.00;97209.34;5014107;28;20055;-85
2023/10/07 03:27:05;;;;;;;0.10;0.10;;;;;;;9.80;100.00;97198.78;5020469;28;20614;-84
2023/10/07 03:30:00;;;;;;;0.10;0.10;;;;;;;9.84;100.00;97203.47;5022971;28;20064;-84
2023/10/07 03:32:54;;;;;;;0.10;0.10;;;;;;;9.93;100.00;97214.66;5022403;28;20084;-86
2023/10/07 03:38:42;;;;;;;;;;;;;;;10.33;100.00;97229.16;5024238;28;20796;-86
2023/10/07 03:41:33;;;;;;;0.10;0.10;;;;;;;10.42;100.00;97229.63;5026152;28;19952;-86
2023/10/07 03:44:22;;;;;;;0.10;0.10;;;;;;;10.50;100.00;97239.19;5022385;28;20127;-89
2023/10/07 03:47:10;;;;;;;0.10;0.10;;;;;;;10.53;100.00;97225.38;5021756;28;20288;-87
2023/10/07 03:49:58;;;;;;;0.10;0.10;;;;;;;10.53;100.00;97207.47;5021934;28;20049;-86
2023/10/07 03:52:49;;;;;;;0.10;0.10;;;;;;;10.54;100.00;97203.72;5021354;28;20116;-86
2023/10/07 03:55:40;;;;;;;0.10;0.10;;;;;;;10.52;100.00;97207.69;5022525;28;20083;-84
2023/10/07 03:58:28;;;;;;;0.10;0.10;;;;;;;10.51;100.00;97212.22;5020615;28;20041;-87
2023/10/07 04:01:17;;;;;;;0.10;0.10;;;;;;;10.58;100.00;97206.75;5021667;28;20074;-85
2023/10/07 04:04:07;;;;;;;0.10;0.10;;;;;;;10.55;100.00;97193.84;5022257;28;20132;-88
2023/10/07 04:06:53;;;;;;;0.10;0.10;;;;;;;10.57;100.00;97194.41;5022846;28;20174;-85
2023/10/07 04:09:41;;;;;;;0.10;0.10;;;;;;;10.62;100.00;97197.22;5025536;28;20043;-90
2023/10/07 04:12:26;;;;;;;0.10;0.10;;;;;;;10.62;100.00;97196.41;5025901;28;20034;-86
2023/10/07 04:15:16;;;;;;;0.05;0.05;;;;;;;10.62;100.00;97191.06;5023738;28;20041;-85
2023/10/07 04:18:03;;;;;;;0.10;0.10;;;;;;;10.55;100.00;97186.63;5025390;28;20087;-85
2023/10/07 04:23:35;;;;;;;0.10;0.10;;;;;;;10.48;100.00;97188.59;5025751;28;20102;-88
2023/10/07 04:26:21;;;;;;;0.10;0.10;;;;;;;10.53;100.00;97190.59;5023750;28;20626;-85
2023/10/07 04:29:14;;;;;;;0.10;0.10;;;;;;;10.59;100.00;97195.03;5023616;28;20044;-84
2023/10/07 04:32:13;;;;;;;0.10;0.10;;;;;;;10.64;100.00;97197.81;5026519;28;21099;-85
2023/10/07 04:35:19;;;;;;;0.10;0.10;;;;;;;10.63;100.00;97184.66;5021949;28;20053;-87
2023/10/07 04:44:20;;;;;;;0.00;0.00;;;;;;;10.69;100.00;97176.53;5024987;28;20046;-84
2023/10/07 04:50:35;;;;;;;0.20;0.20;;;;;;;10.76;100.00;97177.22;4963977;28;20580;-82
2023/10/07 04:53:25;;;;;;;0.10;0.10;;;;;;;10.74;100.00;97189.19;5023464;28;20932;-84
2023/10/07 04:56:21;;;;;;;0.10;0.10;;;;;;;10.66;100.00;97193.06;5022432;28;20487;-85
2023/10/07 04:59:08;;;;;;;0.10;0.10;;;;;;;10.69;100.00;97176.53;5024277;28;20148;-84
2023/10/07 05:02:15;;;;;;;0.10;0.10;;;;;;;10.71;100.00;97179.78;5022747;28;20741;-86
2023/10/07 05:05:10;;;;;;;0.10;0.10;;;;;;;10.79;100.00;97186.66;5026672;28;20050;-83
2023/10/07 05:07:58;;;;;;;0.10;0.10;;;;;;;10.87;100.00;97189.81;5022220;28;20494;-86
2023/10/07 05:11:03;;;;;;;0.10;0.10;;;;;;;10.86;100.00;97198.06;5022495;28;20045;-86
2023/10/07 05:13:49;;;;;;;0.10;0.10;;;;;;;10.93;100.00;97196.09;5023241;28;20239;-88
2023/10/07 05:16:38;;;;;;;0.10;0.10;;;;;;;10.91;100.00;97190.16;5023000;28;20067;-88
2023/10/07 05:19:26;;;;;;;0.10;0.10;;;;;;;10.84;100.00;97181.44;5022690;28;20053;-88
2023/10/07 05:22:15;;;;;;;0.10;0.10;;;;;;;10.90;100.00;97193.09;5024161;28;20067;-88
2023/10/07 05:25:03;;;;;;;0.10;0.10;;;;;;;10.93;100.00;97193.41;5042942;28;20052;-83
2023/10/07 05:27:52;;;;;;;0.10;0.10;;;;;;;10.94;100.00;97204.94;5050771;28;20037;-83
2023/10/07 05:30:43;;;;;;;0.10;0.10;;;;;;;10.93;100.00;97200.63;5044516;28;20041;-85
2023/10/07 05:33:32;;;;;;;0.10;0.10;;;;;;;11.02;100.00;97191.22;5025536;28;20045;-85
2023/10/07 05:36:21;;;;;;;0.10;0.10;;;;;;;10.93;100.00;97189.94;5027966;28;20041;-88
2023/10/07 05:39:13;;;;;;;0.10;0.10;;;;;;;10.94;100.00;97188.88;5026142;28;20437;-85
2023/10/07 05:41:59;;;;;;;0.10;0.10;;;;;;;11.01;100.00;97189.56;5029167;28;20171;-87
2023/10/07 05:44:45;;;;;;;0.10;0.10;;;;;;;11.02;100.00;97185.84;5040367;28;20083;-84
2023/10/07 05:47:32;;;;;;;0.10;0.10;;;;;;;11.05;100.00;97188.03;5042595;28;20044;-84
2023/10/07 05:50:22;;;;;;;0.10;0.10;;;;;;;11.01;100.00;97197.63;5028035;28;20611;-85
2023/10/07 05:53:08;;;;;;;0.10;0.10;;;;;;;11.05;100.00;97201.44;5023841;28;20049;-85
2023/10/07 05:55:53;;;;;;;0.10;0.10;;;;;;;11.01;100.00;97205.66;5026143;28;20056;-84
2023/10/07 05:58:40;;;;;;;0.10;0.10;;;;;;;10.95;100.00;97202.03;5027110;28;20678;-85
2023/10/07 06:01:26;;;;;;;0.10;0.10;;;;;;;10.99;100.00;97189.00;5026501;28;20729;-84
2023/10/07 06:04:12;;;;;;;0.10;0.10;;;;;;;10.88;100.00;97172.69;5022952;28;20073;-84
2023/10/07 06:06:57;;;;;;;0.10;0.10;;;;;;;11.05;100.00;97182.69;5018654;28;20041;-86
2023/10/07 06:09:44;;;;;;;0.10;0.10;;;;;;;10.99;100.00;97191.69;5006917;28;20899;-84
2023/10/07 06:12:30;;;;;;;0.10;0.10;;;;;;;10.97;100.00;97197.28;5020247;28;20044;-85
2023/10/07 06:15:16;;;;;;;0.10;0.10;;;;;;;10.98;100.00;97200.78;5023615;28;20046;-84
2023/10/07 06:18:04;;;;;;;0.10;0.10;;;;;;;10.89;100.00;97205.63;5022267;28;20065;-84
2023/10/07 06:20:53;;;;;;;0.10;0.10;;;;;;;11.00;100.00;97214.72;5021833;28;20802;-85
2023/10/07 06:23:40;;;;;;;0.10;0.10;;;;;;;11.00;100.00;97217.41;5022382;28;20037;-85
2023/10/07 06:26:30;;;;;;;0.10;0.10;;;;;;;11.03;100.00;97230.31;5020682;28;20043;-88
2023/10/07 06:29:18;;;;;;;0.10;0.10;;;;;;;11.07;100.00;97218.13;5019526;28;20038;-83
2023/10/07 06:32:22;;;;;;;0.10;0.10;;;;;;;11.06;100.00;97216.50;5025384;28;20084;-84
2023/10/07 06:35:13;;;;;;;0.10;0.10;;;;;;;11.10;100.00;97217.63;5027844;28;20041;-85
2023/10/07 06:37:59;;;;;;;0.10;0.10;;;;;;;11.18;100.00;97224.50;5025351;28;20767;-85
2023/10/07 06:40:44;;;;;;;0.10;0.10;;;;;;;11.14;100.00;97229.53;5023768;28;20836;-85
2023/10/07 06:43:30;;;;;;;0.10;0.10;;;;;;;11.26;100.00;97230.31;5025578;28;20037;-85
2023/10/07 06:46:20;;;;;;;0.10;0.10;;;;;;;11.34;100.00;97219.25;5027370;28;20101;-85
2023/10/07 06:49:18;;;;;;;0.10;0.10;;;;;;;11.41;100.00;97227.16;5024685;28;20045;-85
2023/10/07 06:52:04;;;;;;;0.10;0.10;;;;;;;11.45;100.00;97222.97;5024219;28;20114;-84
2023/10/07 06:54:54;;;;;;;0.10;0.10;;;;;;;11.50;100.00;97225.75;5005583;28;20146;-85
2023/10/07 06:57:42;;;;;;;0.10;0.10;;;;;;;11.53;100.00;97233.34;5005692;28;20037;-85
2023/10/07 07:00:44;;;;;;;0.10;0.10;;;;;;;11.58;100.00;97235.28;5005381;28;20125;-84
2023/10/07 07:03:32;;;;;;;0.10;0.10;;;;;;;11.63;100.00;97230.06;5005182;28;20407;-85
2023/10/07 07:06:26;;;;;;;0.10;0.10;;;;;;;11.66;100.00;97245.66;5004935;28;20420;-84
2023/10/07 07:12:21;;;;;;;0.10;0.10;;;;;;;11.70;100.00;97242.28;5006890;28;20038;-85
2023/10/07 07:15:08;;;;;;;0.10;0.10;;;;;;;11.61;100.00;97232.97;5003471;28;20738;-85
2023/10/07 07:21:01;;;;;;;0.10;0.10;;;;;;;11.71;100.00;97257.31;5003968;28;20037;-86
2023/10/07 07:23:49;;;;;;;0.10;0.10;;;;;;;12.08;100.00;97261.56;5001769;28;20439;-86
2023/10/07 07:26:38;;;;;;;0.10;0.10;;;;;;;12.14;100.00;97256.06;5004341;28;20133;-86
2023/10/07 07:29:24;;;;;;;0.10;0.10;;;;;;;12.15;100.00;97249.66;5005997;28;20041;-84
2023/10/07 07:32:17;;;;;;;0.10;0.10;;;;;;;12.20;100.00;97252.41;5003152;28;20538;-84
2023/10/07 07:35:03;;;;;;;0.13;0.13;;;;;;;12.24;100.00;97253.56;5004050;28;20037;-86
2023/10/07 07:37:52;;;;;;;0.10;0.10;;;;;;;12.27;100.00;97260.31;5002804;28;20076;-84
2023/10/07 07:40:40;;;;;;;0.10;0.10;;;;;;;12.51;100.00;97253.78;5005958;28;20046;-86
2023/10/07 07:43:26;;;;;;;0.10;0.10;;;;;;;12.62;100.00;97262.06;4988280;28;20037;-86
2023/10/07 07:46:51;;;;;;;0.10;0.10;;;;;;;12.78;100.00;97256.69;5004875;28;20049;-85
2023/10/07 07:49:39;;;;;;;0.10;0.10;;;;;;;12.81;100.00;97261.56;5005290;28;20045;-85
2023/10/07 07:52:25;;;;;;;0.10;0.10;;;;;;;13.00;100.00;97267.53;5002542;28;20561;-84
2023/10/07 07:55:14;;;;;;;0.10;0.10;;;;;;;13.15;100.00;97264.28;4975686;28;20735;-84
2023/10/07 07:58:02;;;;;;;0.10;0.10;;;;;;;13.22;100.00;97253.38;5002932;28;20052;-84
2023/10/07 08:00:58;;;;;;;0.10;0.10;;;;;;;13.11;100.00;97271.19;4990648;28;20069;-85
2023/10/07 08:03:44;;;;;;;0.10;0.10;;;;;;;13.22;100.00;97270.31;5007044;28;20044;-83
2023/10/07 08:06:31;;;;;;;0.10;0.10;;;;;;;13.23;100.00;97261.22;5007605;28;20042;-83
2023/10/07 08:09:19;;;;;;;0.10;0.10;;;;;;;13.32;100.00;97270.47;5008569;28;20729;-83
2023/10/07 08:12:09;;;;;;;0.20;0.20;;;;;;;13.36;100.00;97276.16;5005609;28;20553;-83
2023/10/07 08:14:58;;;;;;;0.10;0.10;;;;;;;13.57;100.00;97270.03;5007007;28;20042;-84
2023/10/07 08:17:45;;;;;;;0.10;0.10;;;;;;;13.84;100.00;97270.13;5009533;28;20044;-83
2023/10/07 08:20:37;;;;;;;0.10;0.10;;;;;;;14.02;100.00;97252.88;5005639;28;20546;-83
2023/10/07 08:23:34;;;;;;;0.10;0.10;;;;;;;14.22;100.00;97255.78;4992586;28;20040;-83
2023/10/07 08:26:23;;;;;;;0.10;0.10;;;;;;;14.26;100.00;97264.19;5004463;28;20052;-83
2023/10/07 08:29:19;;;;;;;0.10;0.10;;;;;;;14.18;100.00;97261.94;5004511;28;20414;-84
2023/10/07 08:32:15;;;;;;;0.10;0.10;;;;;;;14.15;100.00;97247.06;5002112;28;20049;-84
2023/10/07 08:35:18;;;;;;;0.10;0.10;;;;;;;13.82;100.00;97264.19;4988541;28;20064;-85
2023/10/07 08:38:19;;;;;;;0.10;0.10;;;;;;;14.13;100.00;97257.28;5003214;28;20042;-86
2023/10/07 08:41:05;;;;;;;0.10;0.10;;;;;;;14.22;100.00;97258.47;5002009;28;20046;-85
2023/10/07 08:44:03;;;;;;;0.10;0.10;;;;;;;14.41;100.00;97255.47;5003958;28;20157;-85
2023/10/07 08:46:52;;;;;;;0.10;0.10;;;;;;;14.56;100.00;97252.94;5002331;28;20046;-86
2023/10/07 08:49:38;;;;;;;0.10;0.10;;;;;;;14.50;100.00;97264.72;4989200;28;20880;-84
2023/10/07 08:52:29;;;;;;;0.10;0.10;;;;;;;14.58;100.00;97261.59;5004221;28;20045;-84
2023/10/07 08:55:15;;;;;;;0.10;0.10;;;;;;;14.53;100.00;97264.22;5002988;28;20984;-84
2023/10/07 08:58:02;;;;;;;0.10;0.10;;;;;;;14.39;100.00;97257.56;5001378;28;21860;-85
2023/10/07 09:00:50;;;;;;;0.10;0.10;;;;;;;14.16;100.00;97248.72;5005625;28;20566;-84
2023/10/07 09:03:39;;;;;;;0.10;0.10;;;;;;;14.32;100.00;97246.19;5003905;28;20120;-84
2023/10/07 09:06:33;;;;;;;0.10;0.10;;;;;;;14.40;100.00;97243.06;5005594;28;20235;-84
2023/10/07 09:09:39;;;;;;;0.10;0.10;;;;;;;14.10;100.00;97244.34;4986727;28;20033;-86
2023/10/07 09:12:31;;;;;;;0.10;0.10;;;;;;;14.21;100.00;97232.63;5001685;28;20057;-86
2023/10/07 09:15:25;;;;;;;0.10;0.10;;;;;;;14.39;100.00;97246.78;5002139;28;20041;-88
2023/10/07 09:18:17;;;;;;;0.10;0.10;;;;;;;13.96;100.00;97261.94;5000607;28;20046;-84
2023/10/07 09:21:09;;;;;;;0.10;0.10;;;;;;;14.20;100.00;97254.41;5001557;28;20048;-85
2023/10/07 09:24:02;;;;;;;0.10;0.10;;;;;;;14.60;100.00;97258.63;5001667;28;20593;-85
2023/10/07 09:26:56;;;;;;;0.10;0.10;;;;;;;14.62;100.00;97260.00;4999907;28;20142;-86
2023/10/07 09:29:49;;;;;;;0.10;0.10;;;;;;;14.82;100.00;97261.25;5000617;28;20037;-84
2023/10/07 09:32:37;;;;;;;0.10;0.10;;;;;;;15.36;100.00;97261.97;5003473;28;20038;-85
2023/10/07 09:35:25;;;;;;;0.10;0.10;;;;;;;15.43;100.00;97267.13;5002400;28;20091;-85
2023/10/07 09:38:27;;;;;;;0.10;0.10;;;;;;;15.37;100.00;97262.78;4994067;28;20038;-85
2023/10/07 09:41:23;;;;;;;;;;;;;;;15.10;100.00;97263.66;5003292;28;20052;-84
2023/10/07 09:44:26;;;;;;;0.10;0.10;;;;;;;15.00;100.00;97266.25;5002536;28;19979;-85
2023/10/07 09:47:20;;;;;;;0.10;0.10;;;;;;;15.48;100.00;97270.66;5001184;28;20574;-84
2023/10/07 09:50:19;;;;;;;0.10;0.10;;;;;;;15.44;100.00;97285.75;5004753;28;20057;-84
2023/10/07 09:53:27;;;;;;;0.10;0.10;;;;;;;15.49;100.00;97287.69;5009348;28;20456;-83
2023/10/07 09:56:24;;;;;;;0.10;0.10;;;;;;;15.43;100.00;97281.44;5023131;28;20258;-84
2023/10/07 09:59:25;;;;;;;0.10;0.10;;;;;;;15.52;100.00;97277.16;5020991;28;20037;-84
2023/10/07 10:02:25;;;;;;;0.10;0.10;;;;;;;14.97;100.00;97277.56;5021979;28;20045;-83
2023/10/07 10:05:56;;;;;;;0.10;0.10;;;;;;;15.07;100.00;97282.22;5022340;28;20242;-84
2023/10/07 10:08:58;;;;;;;0.10;0.10;;;;;;;15.47;100.00;97273.63;5009489;28;20041;-83
2023/10/07 10:12:16;;;;;;;0.10;0.10;;;;;;;15.73;100.00;97266.53;5022459;28;20688;-84
2023/10/07 10:18:35;;;;;;;0.20;0.20;;;;;;;16.57;100.00;97251.97;5025035;28;20271;-84
2023/10/07 10:21:13;;;;;;;0.10;0.10;;;;;;;16.68;100.00;97249.03;5025045;28;20122;-84
2023/10/07 10:24:02;;;;;;;0.20;0.10;;;;;;;17.13;100.00;97262.91;5024570;28;20083;-83
2023/10/07 10:26:54;;;;;;;0.20;0.20;;;;;;;20.26;100.00;97262.34;5021080;28;20045;-84
2023/10/07 10:29:55;;;;;;;0.20;0.20;;;;;;;23.59;99.13;97251.94;5027084;28;20041;-84
2023/10/07 10:32:44;;;;;;;0.20;0.20;;;;;;;24.62;88.30;97255.38;5023779;28;20045;-84
2023/10/07 10:35:33;;;;;;;0.20;0.20;;;;;;;25.16;88.21;97259.47;5023217;28;20072;-85
2023/10/07 10:38:19;;;;;;;0.20;0.20;;;;;;;25.88;75.05;97252.38;5022453;28;20627;-84
2023/10/07 10:41:06;;;;;;;0.10;0.10;;;;;;;26.88;71.64;97248.94;5025889;28;20045;-86
2023/10/07 10:44:02;;;;;;;0.20;0.20;;;;;;;29.21;52.81;97255.53;5023508;28;20391;-85
2023/10/07 10:46:50;;;;;;;0.20;0.20;;;;;;;28.12;64.29;97239.97;5024545;28;20052;-84
2023/10/07 10:49:36;;;;;;;0.20;0.20;;;;;;;27.86;62.30;97237.50;5011287;28;20077;-85
2023/10/07 10:52:22;;;;;;;0.13;0.13;;;;;;;29.95;49.76;97231.91;5023082;28;20559;-85
2023/10/07 10:55:08;;;;;;;0.20;0.20;;;;;;;29.74;42.74;97230.59;5024880;28;20136;-85
2023/10/07 10:57:54;;;;;;;0.10;0.10;;;;;;;28.58;49.84;97231.22;5009970;28;20727;-86
2023/10/07 11:00:51;;;;;;;0.10;0.10;;;;;;;30.43;45.06;97209.84;5023278;28;20072;-84
2023/10/07 11:03:37;;;;;;;0.10;0.10;;;;;;;32.34;38.91;97211.19;5025558;28;20512;-84
2023/10/07 11:06:23;;;;;;;0.10;0.10;;;;;;;33.30;37.12;97220.78;5024456;28;20050;-84
2023/10/07 11:09:10;;;;;;;0.20;0.20;;;;;;;32.92;36.79;97221.94;5024133;28;20038;-84
2023/10/07 11:11:56;;;;;;;0.10;0.10;;;;;;;33.59;36.31;97213.59;5024192;28;20045;-84
2023/10/07 11:14:43;;;;;;;0.10;0.10;;;;;;;32.77;33.66;97229.22;5021982;28;20037;-84
2023/10/07 11:17:31;;;;;;;0.05;0.05;;;;;;;33.19;33.83;97217.91;5023325;28;20052;-86
2023/10/07 11:20:19;;;;;;;0.10;0.10;;;;;;;33.76;33.83;97217.72;5024543;28;20041;-84
2023/10/07 11:23:08;;;;;;;0.10;0.10;;;;;;;33.22;33.69;97219.91;5024578;28;20090;-84
2023/10/07 11:25:55;;;;;;;0.10;0.10;;;;;;;34.22;32.53;97211.81;5023323;28;20049;-85
2023/10/07 11:28:43;;;;;;;0.10;0.10;;;;;;;34.80;29.60;97214.59;5025222;28;20079;-84
2023/10/07 11:31:30;;;;;;;0.10;0.10;;;;;;;35.07;31.63;97208.78;5025407;28;20041;-85
2023/10/07 11:34:16;;;;;;;0.00;0.00;;;;;;;32.70;31.56;97212.50;5027880;28;20379;-86
2023/10/07 11:37:09;;;;;;;0.10;0.10;;;;;;;33.57;32.46;97223.50;5011176;28;20121;-86
2023/10/07 11:39:54;;;;;;;0.10;0.10;;;;;;;34.46;31.80;97211.22;5023942;28;20128;-86
2023/10/07 11:42:41;;;;;;;0.10;0.10;;;;;;;35.23;31.50;97211.22;5023786;28;20124;-86
2023/10/07 11:45:29;;;;;;;0.10;0.10;;;;;;;35.97;30.51;97213.41;5030266;28;20130;-85
2023/10/07 11:48:14;;;;;;;0.10;0.10;;;;;;;36.09;30.07;97203.84;5023297;28;20111;-86
2023/10/07 11:51:01;;;;;;;0.10;0.10;;;;;;;35.75;27.92;97200.66;5024754;28;20823;-86
2023/10/07 11:53:47;;;;;;;0.00;0.00;;;;;;;36.63;28.66;97199.03;5031470;28;20693;-86
2023/10/07 11:56:33;;;;;;;0.10;0.10;;;;;;;35.76;27.19;97203.03;5010798;28;20048;-86
2023/10/07 11:59:19;;;;;;;0.10;0.10;;;;;;;36.63;29.02;97197.03;5028931;28;20124;-85
2023/10/07 12:02:09;;;;;;;0.08;0.08;;;;;;;36.59;27.36;97209.41;5037766;28;20045;-85
2023/10/07 12:04:59;;;;;;;0.10;0.10;;;;;;;34.89;28.36;97212.25;5029354;28;20049;-86
2023/10/07 12:07:47;;;;;;;0.10;0.10;;;;;;;36.15;27.06;97203.06;5023522;28;20157;-85
2023/10/07 12:10:33;;;;;;;0.00;0.00;;;;;;;35.13;28.73;97212.78;5024199;28;20067;-86
2023/10/07 12:13:19;;;;;;;0.10;0.10;;;;;;;36.26;27.41;97209.41;5023003;28;20051;-87
2023/10/07 12:16:06;;;;;;;0.10;0.10;;;;;;;36.79;28.43;97204.97;5023277;28;20045;-86
2023/10/07 12:18:52;;;;;;;0.10;0.10;;;;;;;36.72;28.20;97216.13;5022934;28;20045;-87
2023/10/07 12:21:42;;;;;;;0.10;0.10;;;;;;;35.64;29.52;97203.41;5023600;28;20044;-86
2023/10/07 12:24:28;;;;;;;0.10;0.10;;;;;;;36.36;27.42;97201.47;5020322;28;20076;-86
2023/10/07 12:27:14;;;;;;;0.10;0.10;;;;;;;36.40;27.09;97203.06;5020970;28;20073;-86
2023/10/07 12:30:00;;;;;;;0.10;0.10;;;;;;;35.76;28.67;97203.03;5024009;28;20075;-86
2023/10/07 12:32:46;;;;;;;0.10;0.10;;;;;;;36.10;27.45;97208.22;5020227;28;20134;-87
2023/10/07 12:35:34;;;;;;;0.10;0.10;;;;;;;36.69;27.30;97214.94;5024016;28;20058;-86
2023/10/07 12:38:20;;;;;;;0.10;0.10;;;;;;;37.18;27.43;97207.63;5022304;28;20082;-85
2023/10/07 12:41:07;;;;;;;0.10;0.10;;;;;;;33.64;29.79;97206.94;5024281;28;20207;-85
2023/10/07 12:43:53;;;;;;;0.10;0.10;;;;;;;33.82;30.21;97205.09;5023250;28;20640;-86
2023/10/07 12:46:43;;;;;;;0.10;0.10;;;;;;;35.16;29.29;97204.44;5023308;28;20041;-85
2023/10/07 12:49:29;;;;;;;0.10;0.10;;;;;;;35.76;28.60;97186.31;5028533;28;20049;-85
2023/10/07 12:52:16;;;;;;;0.10;0.10;;;;;;;36.79;28.08;97205.75;5023603;28;20541;-86
2023/10/07 12:55:03;;;;;;;0.10;0.10;;;;;;;37.60;27.55;97189.91;5022428;28;20741;-85
2023/10/07 12:57:49;;;;;;;0.00;0.00;;;;;;;36.94;26.68;97194.59;5023810;28;20064;-85
2023/10/07 13:00:36;;;;;;;0.10;0.10;;;;;;;37.00;27.35;97190.19;5022419;28;20786;-85
2023/10/07 13:03:22;;;;;;;0.00;0.00;;;;;;;33.61;30.90;97196.56;5022098;28;20041;-85
2023/10/07 13:06:10;;;;;;;0.00;0.00;;;;;;;34.05;30.85;97191.06;5023320;28;20051;-85
2023/10/07 13:08:57;;;;;;;0.08;0.08;;;;;;;33.22;32.88;97197.72;5022242;28;20402;-86
2023/10/07 13:11:45;;;;;;;0.10;0.10;;;;;;;35.28;30.15;97192.16;5021584;28;20045;-85
2023/10/07 13:14:31;;;;;;;0.10;0.10;;;;;;;34.75;29.17;97189.16;5024353;28;20041;-86
2023/10/07 13:17:17;;;;;;;0.10;0.10;;;;;;;35.16;29.23;97189.75;5021043;28;20080;-85
2023/10/07 13:20:07;;;;;;;0.10;0.10;;;;;;;36.32;28.43;97183.94;5024567;28;20159;-86
2023/10/07 13:22:57;;;;;;;;;;;;;;;36.47;27.83;97179.97;5021364;28;20045;-86
2023/10/07 13:25:45;;;;;;;0.10;0.10;;;;;;;36.81;28.38;97189.44;5023238;28;19921;-85
2023/10/07 13:28:31;;;;;;;0.10;0.10;;;;;;;36.99;27.67;97186.59;5022299;28;20072;-85
2023/10/07 13:31:17;;;;;;;0.10;0.10;;;;;;;36.36;27.13;97190.31;5021721;28;20045;-86
2023/10/07 13:34:06;;;;;;;0.10;0.10;;;;;;;36.34;28.24;97193.47;5021448;28;20609;-85
2023/10/07 13:36:52;;;;;;;0.10;0.10;;;;;;;36.21;28.56;97184.75;5020327;28;20033;-86
2023/10/07 13:39:40;;;;;;;0.10;0.10;;;;;;;36.64;28.16;97189.47;5026204;28;20047;-87
2023/10/07 13:42:26;;;;;;;0.10;0.10;;;;;;;36.81;27.75;97186.66;5025737;28;20064;-86
2023/10/07 13:45:14;;;;;;;0.10;0.10;;;;;;;35.94;28.74;97169.66;5025473;28;20041;-86
2023/10/07 13:48:03;;;;;;;0.10;0.10;;;;;;;35.62;29.05;97175.97;5012093;28;20044;-86
2023/10/07 13:50:49;;;;;;;0.10;0.10;;;;;;;34.72;29.91;97184.38;5026565;28;20092;-86